sensor_id;sensor_type;location;lat;lon;timestamp;P1;durP1;ratioP1;P2;durP2;ratioP2
47429;SDS011;33181;49.246;7.372;2023-08-01T00:01:30;11.13;;;6.77;;
47429;SDS011;33181;49.246;7.372;2023-08-01T00:03:57;12.30;;;6.47;;
47429;SDS011;33181;49.246;7.372;2023-08-01T00:06:22;9.90;;;6.30;;
47429;SDS011;33181;49.246;7.372;2023-08-01T00:08:49;9.60;;;6.90;;
47429;SDS011;33181;49.246;7.372;2023-08-01T00:11:16;11.07;;;6.23;;
47429;SDS011;33181;49.246;7.372;2023-08-01T00:13:42;13.80;;;6.30;;
47429;SDS011;33181;49.246;7.372;2023-08-01T00:16:08;11.80;;;6.33;;
47429;SDS011;33181;49.246;7.372;2023-08-01T00:18:35;9.03;;;6.10;;
47429;SDS011;33181;49.246;7.372;2023-08-01T00:21:01;10.73;;;6.07;;
47429;SDS011;33181;49.246;7.372;2023-08-01T00:23:30;15.00;;;6.53;;
47429;SDS011;33181;49.246;7.372;2023-08-01T00:25:56;9.90;;;5.97;;
47429;SDS011;33181;49.246;7.372;2023-08-01T00:28:22;8.43;;;5.67;;
47429;SDS011;33181;49.246;7.372;2023-08-01T00:30:48;10.47;;;6.43;;
47429;SDS011;33181;49.246;7.372;2023-08-01T00:33:13;11.83;;;6.37;;
47429;SDS011;33181;49.246;7.372;2023-08-01T00:35:40;12.00;;;6.30;;
47429;SDS011;33181;49.246;7.372;2023-08-01T00:38:06;9.93;;;5.80;;
47429;SDS011;33181;49.246;7.372;2023-08-01T00:40:32;11.57;;;5.93;;
47429;SDS011;33181;49.246;7.372;2023-08-01T00:42:59;11.40;;;6.30;;
47429;SDS011;33181;49.246;7.372;2023-08-01T00:45:28;9.53;;;6.20;;
47429;SDS011;33181;49.246;7.372;2023-08-01T00:47:55;11.13;;;5.93;;
47429;SDS011;33181;49.246;7.372;2023-08-01T00:50:22;8.70;;;5.57;;
47429;SDS011;33181;49.246;7.372;2023-08-01T00:52:49;13.30;;;6.50;;
47429;SDS011;33181;49.246;7.372;2023-08-01T00:55:16;11.70;;;5.90;;
47429;SDS011;33181;49.246;7.372;2023-08-01T00:57:44;11.27;;;5.97;;
47429;SDS011;33181;49.246;7.372;2023-08-01T01:00:10;10.83;;;6.10;;
47429;SDS011;33181;49.246;7.372;2023-08-01T01:02:37;11.07;;;6.87;;
47429;SDS011;33181;49.246;7.372;2023-08-01T01:05:03;12.33;;;6.17;;
47429;SDS011;33181;49.246;7.372;2023-08-01T01:07:30;11.20;;;6.90;;
47429;SDS011;33181;49.246;7.372;2023-08-01T01:09:57;11.00;;;5.83;;
47429;SDS011;33181;49.246;7.372;2023-08-01T01:12:24;20.43;;;6.97;;
47429;SDS011;33181;49.246;7.372;2023-08-01T01:14:49;9.60;;;5.77;;
47429;SDS011;33181;49.246;7.372;2023-08-01T01:17:15;15.97;;;6.90;;
47429;SDS011;33181;49.246;7.372;2023-08-01T01:19:41;11.03;;;6.23;;
47429;SDS011;33181;49.246;7.372;2023-08-01T01:22:07;11.20;;;7.07;;
47429;SDS011;33181;49.246;7.372;2023-08-01T01:24:35;12.63;;;6.50;;
47429;SDS011;33181;49.246;7.372;2023-08-01T01:27:03;9.70;;;6.33;;
47429;SDS011;33181;49.246;7.372;2023-08-01T01:29:31;12.20;;;6.00;;
47429;SDS011;33181;49.246;7.372;2023-08-01T01:31:59;12.03;;;6.40;;
47429;SDS011;33181;49.246;7.372;2023-08-01T01:34:27;10.30;;;6.30;;
47429;SDS011;33181;49.246;7.372;2023-08-01T01:36:53;10.17;;;5.60;;
47429;SDS011;33181;49.246;7.372;2023-08-01T01:39:19;13.10;;;6.63;;
47429;SDS011;33181;49.246;7.372;2023-08-01T01:41:45;13.83;;;6.10;;
47429;SDS011;33181;49.246;7.372;2023-08-01T01:44:11;11.33;;;6.53;;
47429;SDS011;33181;49.246;7.372;2023-08-01T01:46:37;10.70;;;6.50;;
47429;SDS011;33181;49.246;7.372;2023-08-01T01:49:03;9.83;;;6.40;;
47429;SDS011;33181;49.246;7.372;2023-08-01T01:51:29;12.07;;;6.70;;
47429;SDS011;33181;49.246;7.372;2023-08-01T01:53:55;10.60;;;6.30;;
47429;SDS011;33181;49.246;7.372;2023-08-01T01:56:21;12.43;;;6.47;;
47429;SDS011;33181;49.246;7.372;2023-08-01T01:58:47;8.60;;;6.10;;
47429;SDS011;33181;49.246;7.372;2023-08-01T02:01:13;14.00;;;6.27;;
47429;SDS011;33181;49.246;7.372;2023-08-01T02:03:39;11.90;;;6.70;;
47429;SDS011;33181;49.246;7.372;2023-08-01T02:06:05;9.63;;;6.33;;
47429;SDS011;33181;49.246;7.372;2023-08-01T02:08:31;14.80;;;6.63;;
47429;SDS011;33181;49.246;7.372;2023-08-01T02:10:56;10.60;;;5.87;;
47429;SDS011;33181;49.246;7.372;2023-08-01T02:13:26;9.47;;;6.53;;
47429;SDS011;33181;49.246;7.372;2023-08-01T02:15:54;11.50;;;6.10;;
47429;SDS011;33181;49.246;7.372;2023-08-01T02:18:19;11.43;;;6.40;;
47429;SDS011;33181;49.246;7.372;2023-08-01T02:20:45;11.90;;;5.70;;
47429;SDS011;33181;49.246;7.372;2023-08-01T02:23:11;10.30;;;5.80;;
47429;SDS011;33181;49.246;7.372;2023-08-01T02:25:40;9.80;;;5.93;;
47429;SDS011;33181;49.246;7.372;2023-08-01T02:28:06;15.53;;;6.70;;
47429;SDS011;33181;49.246;7.372;2023-08-01T02:30:36;9.17;;;6.27;;
47429;SDS011;33181;49.246;7.372;2023-08-01T02:33:01;12.40;;;6.30;;
47429;SDS011;33181;49.246;7.372;2023-08-01T02:35:28;10.13;;;6.10;;
47429;SDS011;33181;49.246;7.372;2023-08-01T02:37:54;11.73;;;5.83;;
47429;SDS011;33181;49.246;7.372;2023-08-01T02:40:21;8.90;;;5.50;;
47429;SDS011;33181;49.246;7.372;2023-08-01T02:42:46;11.30;;;5.60;;
47429;SDS011;33181;49.246;7.372;2023-08-01T02:45:12;11.80;;;6.40;;
47429;SDS011;33181;49.246;7.372;2023-08-01T02:47:38;12.00;;;5.93;;
47429;SDS011;33181;49.246;7.372;2023-08-01T02:50:07;9.30;;;6.00;;
47429;SDS011;33181;49.246;7.372;2023-08-01T02:52:33;14.83;;;7.13;;
47429;SDS011;33181;49.246;7.372;2023-08-01T02:54:59;13.00;;;6.00;;
47429;SDS011;33181;49.246;7.372;2023-08-01T02:57:25;10.27;;;6.10;;
47429;SDS011;33181;49.246;7.372;2023-08-01T02:59:50;10.83;;;6.37;;
47429;SDS011;33181;49.246;7.372;2023-08-01T03:02:16;9.77;;;6.37;;
47429;SDS011;33181;49.246;7.372;2023-08-01T03:04:42;10.40;;;5.57;;
47429;SDS011;33181;49.246;7.372;2023-08-01T03:07:08;11.70;;;6.07;;
47429;SDS011;33181;49.246;7.372;2023-08-01T03:09:33;12.63;;;6.37;;
47429;SDS011;33181;49.246;7.372;2023-08-01T03:11:59;10.47;;;6.50;;
47429;SDS011;33181;49.246;7.372;2023-08-01T03:14:25;11.53;;;6.30;;
47429;SDS011;33181;49.246;7.372;2023-08-01T03:16:51;13.10;;;6.77;;
47429;SDS011;33181;49.246;7.372;2023-08-01T03:19:16;10.37;;;6.10;;
47429;SDS011;33181;49.246;7.372;2023-08-01T03:21:42;12.83;;;6.53;;
47429;SDS011;33181;49.246;7.372;2023-08-01T03:24:08;10.43;;;6.20;;
47429;SDS011;33181;49.246;7.372;2023-08-01T03:26:34;11.20;;;6.40;;
47429;SDS011;33181;49.246;7.372;2023-08-01T03:29:01;9.53;;;5.90;;
47429;SDS011;33181;49.246;7.372;2023-08-01T03:31:27;11.73;;;6.00;;
47429;SDS011;33181;49.246;7.372;2023-08-01T03:33:53;10.07;;;5.70;;
47429;SDS011;33181;49.246;7.372;2023-08-01T03:36:19;9.70;;;5.60;;
47429;SDS011;33181;49.246;7.372;2023-08-01T03:38:45;13.00;;;6.00;;
47429;SDS011;33181;49.246;7.372;2023-08-01T03:41:11;11.07;;;6.50;;
47429;SDS011;33181;49.246;7.372;2023-08-01T03:43:37;11.13;;;6.90;;
47429;SDS011;33181;49.246;7.372;2023-08-01T03:46:03;11.97;;;6.07;;
47429;SDS011;33181;49.246;7.372;2023-08-01T03:48:30;14.20;;;6.43;;
47429;SDS011;33181;49.246;7.372;2023-08-01T03:50:55;11.80;;;6.60;;
47429;SDS011;33181;49.246;7.372;2023-08-01T03:53:21;12.90;;;7.50;;
47429;SDS011;33181;49.246;7.372;2023-08-01T03:55:47;11.93;;;7.43;;
47429;SDS011;33181;49.246;7.372;2023-08-01T03:58:16;12.40;;;7.27;;
47429;SDS011;33181;49.246;7.372;2023-08-01T04:00:42;15.23;;;7.17;;
47429;SDS011;33181;49.246;7.372;2023-08-01T04:03:07;10.60;;;7.30;;
47429;SDS011;33181;49.246;7.372;2023-08-01T04:05:33;10.90;;;7.23;;
47429;SDS011;33181;49.246;7.372;2023-08-01T04:08:01;12.83;;;7.93;;
47429;SDS011;33181;49.246;7.372;2023-08-01T04:10:27;18.33;;;8.10;;
47429;SDS011;33181;49.246;7.372;2023-08-01T04:12:53;11.40;;;7.53;;
47429;SDS011;33181;49.246;7.372;2023-08-01T04:15:18;12.10;;;8.00;;
47429;SDS011;33181;49.246;7.372;2023-08-01T04:17:44;15.63;;;8.60;;
47429;SDS011;33181;49.246;7.372;2023-08-01T04:20:12;12.37;;;8.13;;
47429;SDS011;33181;49.246;7.372;2023-08-01T04:22:38;12.73;;;8.33;;
47429;SDS011;33181;49.246;7.372;2023-08-01T04:25:04;15.40;;;8.87;;
47429;SDS011;33181;49.246;7.372;2023-08-01T04:27:30;18.90;;;8.93;;
47429;SDS011;33181;49.246;7.372;2023-08-01T04:29:56;13.83;;;8.10;;
47429;SDS011;33181;49.246;7.372;2023-08-01T04:32:22;14.73;;;8.50;;
47429;SDS011;33181;49.246;7.372;2023-08-01T04:34:47;11.67;;;7.60;;
47429;SDS011;33181;49.246;7.372;2023-08-01T04:37:13;16.23;;;9.17;;
47429;SDS011;33181;49.246;7.372;2023-08-01T04:39:39;13.80;;;8.30;;
47429;SDS011;33181;49.246;7.372;2023-08-01T04:42:05;13.80;;;8.43;;
47429;SDS011;33181;49.246;7.372;2023-08-01T04:44:31;13.27;;;8.53;;
47429;SDS011;33181;49.246;7.372;2023-08-01T04:46:57;14.03;;;8.30;;
47429;SDS011;33181;49.246;7.372;2023-08-01T04:49:23;11.60;;;7.73;;
47429;SDS011;33181;49.246;7.372;2023-08-01T04:51:51;13.53;;;8.50;;
47429;SDS011;33181;49.246;7.372;2023-08-01T04:54:16;11.53;;;7.40;;
47429;SDS011;33181;49.246;7.372;2023-08-01T04:56:42;15.10;;;7.90;;
47429;SDS011;33181;49.246;7.372;2023-08-01T04:59:08;11.57;;;6.97;;
47429;SDS011;33181;49.246;7.372;2023-08-01T05:01:34;10.17;;;6.50;;
47429;SDS011;33181;49.246;7.372;2023-08-01T05:03:59;11.27;;;6.73;;
47429;SDS011;33181;49.246;7.372;2023-08-01T05:06:27;9.10;;;5.87;;
47429;SDS011;33181;49.246;7.372;2023-08-01T05:08:53;10.00;;;6.07;;
47429;SDS011;33181;49.246;7.372;2023-08-01T05:11:19;10.00;;;4.90;;
47429;SDS011;33181;49.246;7.372;2023-08-01T05:13:45;7.50;;;5.20;;
47429;SDS011;33181;49.246;7.372;2023-08-01T05:16:11;7.00;;;4.57;;
47429;SDS011;33181;49.246;7.372;2023-08-01T05:18:37;5.90;;;4.47;;
47429;SDS011;33181;49.246;7.372;2023-08-01T05:21:03;10.70;;;4.40;;
47429;SDS011;33181;49.246;7.372;2023-08-01T05:23:29;7.50;;;4.37;;
47429;SDS011;33181;49.246;7.372;2023-08-01T05:25:54;6.50;;;4.10;;
47429;SDS011;33181;49.246;7.372;2023-08-01T05:28:20;5.80;;;4.20;;
47429;SDS011;33181;49.246;7.372;2023-08-01T05:30:46;5.60;;;3.83;;
47429;SDS011;33181;49.246;7.372;2023-08-01T05:33:12;5.80;;;3.67;;
47429;SDS011;33181;49.246;7.372;2023-08-01T05:35:38;5.70;;;3.40;;
47429;SDS011;33181;49.246;7.372;2023-08-01T05:38:04;7.10;;;3.57;;
47429;SDS011;33181;49.246;7.372;2023-08-01T05:40:29;5.70;;;3.30;;
47429;SDS011;33181;49.246;7.372;2023-08-01T05:42:55;4.90;;;3.20;;
47429;SDS011;33181;49.246;7.372;2023-08-01T05:45:21;4.63;;;3.23;;
47429;SDS011;33181;49.246;7.372;2023-08-01T05:47:49;5.03;;;3.00;;
47429;SDS011;33181;49.246;7.372;2023-08-01T05:50:15;5.80;;;3.50;;
47429;SDS011;33181;49.246;7.372;2023-08-01T05:52:41;4.00;;;2.47;;
47429;SDS011;33181;49.246;7.372;2023-08-01T05:55:06;4.57;;;3.03;;
47429;SDS011;33181;49.246;7.372;2023-08-01T05:57:32;5.40;;;2.80;;
47429;SDS011;33181;49.246;7.372;2023-08-01T05:59:58;4.77;;;3.10;;
47429;SDS011;33181;49.246;7.372;2023-08-01T06:02:24;3.93;;;2.80;;
47429;SDS011;33181;49.246;7.372;2023-08-01T06:04:50;4.53;;;3.00;;
47429;SDS011;33181;49.246;7.372;2023-08-01T06:07:16;4.73;;;2.80;;
47429;SDS011;33181;49.246;7.372;2023-08-01T06:09:47;4.27;;;2.93;;
47429;SDS011;33181;49.246;7.372;2023-08-01T06:12:17;3.70;;;2.33;;
47429;SDS011;33181;49.246;7.372;2023-08-01T06:14:43;4.20;;;2.50;;
47429;SDS011;33181;49.246;7.372;2023-08-01T06:17:10;5.13;;;2.50;;
47429;SDS011;33181;49.246;7.372;2023-08-01T06:19:35;3.27;;;2.40;;
47429;SDS011;33181;49.246;7.372;2023-08-01T06:22:01;5.63;;;2.53;;
47429;SDS011;33181;49.246;7.372;2023-08-01T06:24:27;3.70;;;2.50;;
47429;SDS011;33181;49.246;7.372;2023-08-01T06:26:53;4.53;;;2.30;;
47429;SDS011;33181;49.246;7.372;2023-08-01T06:29:18;4.97;;;2.23;;
47429;SDS011;33181;49.246;7.372;2023-08-01T06:31:44;4.90;;;2.40;;
47429;SDS011;33181;49.246;7.372;2023-08-01T06:34:13;4.17;;;2.47;;
47429;SDS011;33181;49.246;7.372;2023-08-01T06:36:38;4.07;;;2.00;;
47429;SDS011;33181;49.246;7.372;2023-08-01T06:39:04;2.70;;;1.67;;
47429;SDS011;33181;49.246;7.372;2023-08-01T06:41:30;3.50;;;1.70;;
47429;SDS011;33181;49.246;7.372;2023-08-01T06:43:57;2.10;;;1.40;;
47429;SDS011;33181;49.246;7.372;2023-08-01T06:46:25;2.50;;;1.50;;
47429;SDS011;33181;49.246;7.372;2023-08-01T06:48:50;2.33;;;1.50;;
47429;SDS011;33181;49.246;7.372;2023-08-01T06:51:16;2.80;;;1.70;;
47429;SDS011;33181;49.246;7.372;2023-08-01T06:53:42;3.10;;;1.50;;
47429;SDS011;33181;49.246;7.372;2023-08-01T06:56:08;2.90;;;1.67;;
47429;SDS011;33181;49.246;7.372;2023-08-01T06:58:33;4.00;;;1.50;;
47429;SDS011;33181;49.246;7.372;2023-08-01T07:00:59;2.23;;;1.30;;
47429;SDS011;33181;49.246;7.372;2023-08-01T07:03:25;2.13;;;1.30;;
47429;SDS011;33181;49.246;7.372;2023-08-01T07:05:50;2.40;;;1.40;;
47429;SDS011;33181;49.246;7.372;2023-08-01T07:08:16;2.33;;;1.23;;
47429;SDS011;33181;49.246;7.372;2023-08-01T07:10:42;2.20;;;1.30;;
47429;SDS011;33181;49.246;7.372;2023-08-01T07:13:08;3.20;;;1.40;;
47429;SDS011;33181;49.246;7.372;2023-08-01T07:15:33;6.30;;;1.80;;
47429;SDS011;33181;49.246;7.372;2023-08-01T07:17:59;2.77;;;1.50;;
47429;SDS011;33181;49.246;7.372;2023-08-01T07:20:25;2.23;;;1.30;;
47429;SDS011;33181;49.246;7.372;2023-08-01T07:22:51;2.20;;;1.30;;
47429;SDS011;33181;49.246;7.372;2023-08-01T07:25:17;2.47;;;1.40;;
47429;SDS011;33181;49.246;7.372;2023-08-01T07:27:44;2.90;;;1.33;;
47429;SDS011;33181;49.246;7.372;2023-08-01T07:30:11;2.70;;;1.50;;
47429;SDS011;33181;49.246;7.372;2023-08-01T07:32:37;2.57;;;1.50;;
47429;SDS011;33181;49.246;7.372;2023-08-01T07:35:05;3.93;;;1.50;;
47429;SDS011;33181;49.246;7.372;2023-08-01T07:37:35;2.47;;;1.40;;
47429;SDS011;33181;49.246;7.372;2023-08-01T07:40:02;2.83;;;1.47;;
47429;SDS011;33181;49.246;7.372;2023-08-01T07:42:33;2.20;;;1.33;;
47429;SDS011;33181;49.246;7.372;2023-08-01T07:44:58;3.73;;;1.40;;
47429;SDS011;33181;49.246;7.372;2023-08-01T07:47:24;2.23;;;1.50;;
47429;SDS011;33181;49.246;7.372;2023-08-01T07:49:51;2.27;;;1.40;;
47429;SDS011;33181;49.246;7.372;2023-08-01T07:52:16;2.70;;;1.40;;
47429;SDS011;33181;49.246;7.372;2023-08-01T07:54:42;2.10;;;1.40;;
47429;SDS011;33181;49.246;7.372;2023-08-01T07:57:08;2.17;;;1.40;;
47429;SDS011;33181;49.246;7.372;2023-08-01T07:59:34;3.10;;;1.80;;
47429;SDS011;33181;49.246;7.372;2023-08-01T08:01:59;3.77;;;1.60;;
47429;SDS011;33181;49.246;7.372;2023-08-01T08:04:25;3.37;;;1.80;;
47429;SDS011;33181;49.246;7.372;2023-08-01T08:06:51;3.90;;;1.57;;
47429;SDS011;33181;49.246;7.372;2023-08-01T08:09:17;3.23;;;1.67;;
47429;SDS011;33181;49.246;7.372;2023-08-01T08:11:43;4.07;;;1.60;;
47429;SDS011;33181;49.246;7.372;2023-08-01T08:14:09;3.00;;;1.50;;
47429;SDS011;33181;49.246;7.372;2023-08-01T08:16:36;3.83;;;1.80;;
47429;SDS011;33181;49.246;7.372;2023-08-01T08:19:02;4.00;;;1.70;;
47429;SDS011;33181;49.246;7.372;2023-08-01T08:21:27;3.73;;;1.80;;
47429;SDS011;33181;49.246;7.372;2023-08-01T08:23:53;3.20;;;1.90;;
47429;SDS011;33181;49.246;7.372;2023-08-01T08:26:20;2.50;;;1.60;;
47429;SDS011;33181;49.246;7.372;2023-08-01T08:28:46;2.30;;;1.50;;
47429;SDS011;33181;49.246;7.372;2023-08-01T08:31:12;2.50;;;1.60;;
47429;SDS011;33181;49.246;7.372;2023-08-01T08:33:38;3.43;;;1.60;;
47429;SDS011;33181;49.246;7.372;2023-08-01T08:36:04;2.67;;;1.80;;
47429;SDS011;33181;49.246;7.372;2023-08-01T08:38:29;3.17;;;2.03;;
47429;SDS011;33181;49.246;7.372;2023-08-01T08:41:09;4.47;;;2.00;;
47429;SDS011;33181;49.246;7.372;2023-08-01T08:43:49;3.90;;;1.97;;
47429;SDS011;33181;49.246;7.372;2023-08-01T08:46:23;3.80;;;2.33;;
47429;SDS011;33181;49.246;7.372;2023-08-01T08:48:54;3.00;;;2.00;;
47429;SDS011;33181;49.246;7.372;2023-08-01T08:51:26;4.00;;;2.30;;
47429;SDS011;33181;49.246;7.372;2023-08-01T08:53:53;3.40;;;2.30;;
47429;SDS011;33181;49.246;7.372;2023-08-01T08:56:21;4.80;;;2.43;;
47429;SDS011;33181;49.246;7.372;2023-08-01T08:58:48;3.33;;;2.50;;
47429;SDS011;33181;49.246;7.372;2023-08-01T09:01:14;3.37;;;2.50;;
47429;SDS011;33181;49.246;7.372;2023-08-01T09:03:42;3.00;;;2.10;;
47429;SDS011;33181;49.246;7.372;2023-08-01T09:06:11;5.40;;;2.27;;
47429;SDS011;33181;49.246;7.372;2023-08-01T09:08:42;3.80;;;2.10;;
47429;SDS011;33181;49.246;7.372;2023-08-01T09:11:16;3.33;;;2.20;;
47429;SDS011;33181;49.246;7.372;2023-08-01T09:13:43;3.10;;;2.13;;
47429;SDS011;33181;49.246;7.372;2023-08-01T09:16:09;3.23;;;2.10;;
47429;SDS011;33181;49.246;7.372;2023-08-01T09:18:46;3.03;;;2.07;;
47429;SDS011;33181;49.246;7.372;2023-08-01T09:21:20;4.47;;;2.50;;
47429;SDS011;33181;49.246;7.372;2023-08-01T09:23:46;3.97;;;2.50;;
47429;SDS011;33181;49.246;7.372;2023-08-01T09:26:16;3.50;;;2.37;;
47429;SDS011;33181;49.246;7.372;2023-08-01T09:28:55;5.17;;;2.40;;
47429;SDS011;33181;49.246;7.372;2023-08-01T09:31:26;4.70;;;2.37;;
47429;SDS011;33181;49.246;7.372;2023-08-01T09:33:54;4.40;;;2.57;;
47429;SDS011;33181;49.246;7.372;2023-08-01T09:36:23;4.57;;;2.70;;
47429;SDS011;33181;49.246;7.372;2023-08-01T09:38:49;3.70;;;2.50;;
47429;SDS011;33181;49.246;7.372;2023-08-01T09:41:19;4.57;;;2.70;;
47429;SDS011;33181;49.246;7.372;2023-08-01T09:43:46;3.83;;;2.47;;
47429;SDS011;33181;49.246;7.372;2023-08-01T09:46:13;4.30;;;2.33;;
47429;SDS011;33181;49.246;7.372;2023-08-01T09:48:39;5.20;;;2.20;;
47429;SDS011;33181;49.246;7.372;2023-08-01T09:53:46;4.53;;;2.50;;
47429;SDS011;33181;49.246;7.372;2023-08-01T09:56:15;4.57;;;2.50;;
47429;SDS011;33181;49.246;7.372;2023-08-01T09:58:45;3.83;;;2.40;;
47429;SDS011;33181;49.246;7.372;2023-08-01T10:01:12;4.20;;;2.37;;
47429;SDS011;33181;49.246;7.372;2023-08-01T10:03:40;3.97;;;2.47;;
47429;SDS011;33181;49.246;7.372;2023-08-01T10:06:20;4.20;;;2.70;;
47429;SDS011;33181;49.246;7.372;2023-08-01T10:08:49;5.03;;;2.60;;
47429;SDS011;33181;49.246;7.372;2023-08-01T10:11:18;4.20;;;2.50;;
47429;SDS011;33181;49.246;7.372;2023-08-01T10:13:46;4.37;;;2.70;;
47429;SDS011;33181;49.246;7.372;2023-08-01T10:16:12;4.23;;;2.57;;
47429;SDS011;33181;49.246;7.372;2023-08-01T10:18:39;4.80;;;2.70;;
47429;SDS011;33181;49.246;7.372;2023-08-01T10:21:06;4.30;;;2.60;;
47429;SDS011;33181;49.246;7.372;2023-08-01T10:23:36;3.90;;;2.40;;
47429;SDS011;33181;49.246;7.372;2023-08-01T10:26:05;4.40;;;2.83;;
47429;SDS011;33181;49.246;7.372;2023-08-01T10:28:34;3.90;;;2.50;;
47429;SDS011;33181;49.246;7.372;2023-08-01T10:31:14;4.47;;;2.60;;
47429;SDS011;33181;49.246;7.372;2023-08-01T10:33:43;4.60;;;2.40;;
47429;SDS011;33181;49.246;7.372;2023-08-01T10:38:52;5.30;;;2.60;;
47429;SDS011;33181;49.246;7.372;2023-08-01T10:41:28;3.70;;;2.40;;
47429;SDS011;33181;49.246;7.372;2023-08-01T10:44:07;3.53;;;2.33;;
47429;SDS011;33181;49.246;7.372;2023-08-01T10:49:13;4.70;;;2.37;;
47429;SDS011;33181;49.246;7.372;2023-08-01T10:51:39;4.13;;;2.30;;
47429;SDS011;33181;49.246;7.372;2023-08-01T10:54:05;3.83;;;2.30;;
47429;SDS011;33181;49.246;7.372;2023-08-01T10:56:31;5.40;;;2.40;;
47429;SDS011;33181;49.246;7.372;2023-08-01T10:58:58;3.77;;;2.77;;
47429;SDS011;33181;49.246;7.372;2023-08-01T11:01:24;3.00;;;2.20;;
47429;SDS011;33181;49.246;7.372;2023-08-01T11:03:53;4.43;;;2.70;;
47429;SDS011;33181;49.246;7.372;2023-08-01T11:06:18;4.07;;;2.50;;
47429;SDS011;33181;49.246;7.372;2023-08-01T11:08:44;4.80;;;2.70;;
47429;SDS011;33181;49.246;7.372;2023-08-01T11:11:13;4.40;;;2.83;;
47429;SDS011;33181;49.246;7.372;2023-08-01T11:13:40;3.97;;;2.43;;
47429;SDS011;33181;49.246;7.372;2023-08-01T11:16:06;4.50;;;2.87;;
47429;SDS011;33181;49.246;7.372;2023-08-01T11:18:42;5.07;;;2.83;;
47429;SDS011;33181;49.246;7.372;2023-08-01T11:21:08;4.27;;;2.50;;
47429;SDS011;33181;49.246;7.372;2023-08-01T11:23:34;3.80;;;2.30;;
47429;SDS011;33181;49.246;7.372;2023-08-01T11:26:08;3.57;;;2.53;;
47429;SDS011;33181;49.246;7.372;2023-08-01T11:28:34;4.90;;;2.53;;
47429;SDS011;33181;49.246;7.372;2023-08-01T11:31:00;3.77;;;2.47;;
47429;SDS011;33181;49.246;7.372;2023-08-01T11:33:26;3.30;;;2.50;;
47429;SDS011;33181;49.246;7.372;2023-08-01T11:35:52;4.83;;;2.67;;
47429;SDS011;33181;49.246;7.372;2023-08-01T11:38:28;5.30;;;2.63;;
47429;SDS011;33181;49.246;7.372;2023-08-01T11:40:56;4.57;;;2.67;;
47429;SDS011;33181;49.246;7.372;2023-08-01T11:43:23;6.00;;;2.57;;
47429;SDS011;33181;49.246;7.372;2023-08-01T11:45:52;4.10;;;2.70;;
47429;SDS011;33181;49.246;7.372;2023-08-01T11:48:20;4.87;;;2.70;;
47429;SDS011;33181;49.246;7.372;2023-08-01T11:50:59;3.70;;;2.63;;
47429;SDS011;33181;49.246;7.372;2023-08-01T11:53:26;4.33;;;2.87;;
47429;SDS011;33181;49.246;7.372;2023-08-01T11:55:53;5.37;;;2.70;;
47429;SDS011;33181;49.246;7.372;2023-08-01T11:58:31;4.37;;;2.50;;
47429;SDS011;33181;49.246;7.372;2023-08-01T12:01:05;3.97;;;2.40;;
47429;SDS011;33181;49.246;7.372;2023-08-01T12:06:15;7.93;;;2.70;;
47429;SDS011;33181;49.246;7.372;2023-08-01T12:08:43;5.00;;;2.77;;
47429;SDS011;33181;49.246;7.372;2023-08-01T12:11:21;7.13;;;2.90;;
47429;SDS011;33181;49.246;7.372;2023-08-01T12:14:00;4.90;;;2.90;;
47429;SDS011;33181;49.246;7.372;2023-08-01T12:16:27;5.43;;;2.93;;
47429;SDS011;33181;49.246;7.372;2023-08-01T12:18:53;4.87;;;2.23;;
47429;SDS011;33181;49.246;7.372;2023-08-01T12:21:19;5.03;;;2.80;;
47429;SDS011;33181;49.246;7.372;2023-08-01T12:23:45;4.70;;;2.50;;
47429;SDS011;33181;49.246;7.372;2023-08-01T12:26:13;3.93;;;2.63;;
47429;SDS011;33181;49.246;7.372;2023-08-01T12:28:38;7.60;;;2.60;;
47429;SDS011;33181;49.246;7.372;2023-08-01T12:31:05;5.40;;;3.53;;
47429;SDS011;33181;49.246;7.372;2023-08-01T12:33:31;4.43;;;2.27;;
47429;SDS011;33181;49.246;7.372;2023-08-01T12:35:59;3.50;;;2.50;;
47429;SDS011;33181;49.246;7.372;2023-08-01T12:38:25;3.63;;;2.57;;
47429;SDS011;33181;49.246;7.372;2023-08-01T12:40:51;7.27;;;2.70;;
47429;SDS011;33181;49.246;7.372;2023-08-01T12:43:17;4.60;;;2.50;;
47429;SDS011;33181;49.246;7.372;2023-08-01T12:45:43;6.77;;;2.97;;
47429;SDS011;33181;49.246;7.372;2023-08-01T12:48:09;6.07;;;3.50;;
47429;SDS011;33181;49.246;7.372;2023-08-01T12:50:35;6.87;;;3.20;;
47429;SDS011;33181;49.246;7.372;2023-08-01T12:53:00;5.70;;;3.10;;
47429;SDS011;33181;49.246;7.372;2023-08-01T12:55:26;5.10;;;3.40;;
47429;SDS011;33181;49.246;7.372;2023-08-01T12:57:52;4.73;;;2.50;;
47429;SDS011;33181;49.246;7.372;2023-08-01T13:00:18;5.83;;;2.60;;
47429;SDS011;33181;49.246;7.372;2023-08-01T13:02:43;4.67;;;2.80;;
47429;SDS011;33181;49.246;7.372;2023-08-01T13:05:09;4.10;;;2.40;;
47429;SDS011;33181;49.246;7.372;2023-08-01T13:07:35;6.80;;;2.83;;
47429;SDS011;33181;49.246;7.372;2023-08-01T13:10:01;4.33;;;2.27;;
47429;SDS011;33181;49.246;7.372;2023-08-01T13:12:28;4.87;;;2.30;;
47429;SDS011;33181;49.246;7.372;2023-08-01T13:14:55;5.07;;;2.80;;
47429;SDS011;33181;49.246;7.372;2023-08-01T13:17:21;5.10;;;2.20;;
47429;SDS011;33181;49.246;7.372;2023-08-01T13:19:47;3.83;;;2.37;;
47429;SDS011;33181;49.246;7.372;2023-08-01T13:22:12;6.20;;;2.77;;
47429;SDS011;33181;49.246;7.372;2023-08-01T13:24:38;4.40;;;2.87;;
47429;SDS011;33181;49.246;7.372;2023-08-01T13:27:04;4.43;;;2.47;;
47429;SDS011;33181;49.246;7.372;2023-08-01T13:29:30;3.63;;;2.40;;
47429;SDS011;33181;49.246;7.372;2023-08-01T13:31:56;5.00;;;2.57;;
47429;SDS011;33181;49.246;7.372;2023-08-01T13:34:22;7.17;;;2.70;;
47429;SDS011;33181;49.246;7.372;2023-08-01T13:36:49;5.43;;;3.50;;
47429;SDS011;33181;49.246;7.372;2023-08-01T13:39:14;6.27;;;2.77;;
47429;SDS011;33181;49.246;7.372;2023-08-01T13:41:40;3.90;;;2.40;;
47429;SDS011;33181;49.246;7.372;2023-08-01T13:44:06;3.60;;;2.30;;
47429;SDS011;33181;49.246;7.372;2023-08-01T13:46:32;3.97;;;2.50;;
47429;SDS011;33181;49.246;7.372;2023-08-01T13:48:57;5.10;;;2.40;;
47429;SDS011;33181;49.246;7.372;2023-08-01T13:51:23;7.13;;;2.80;;
47429;SDS011;33181;49.246;7.372;2023-08-01T13:53:49;4.87;;;2.40;;
47429;SDS011;33181;49.246;7.372;2023-08-01T13:56:15;4.23;;;2.40;;
47429;SDS011;33181;49.246;7.372;2023-08-01T13:58:41;3.97;;;2.63;;
47429;SDS011;33181;49.246;7.372;2023-08-01T14:01:07;4.30;;;2.60;;
47429;SDS011;33181;49.246;7.372;2023-08-01T14:03:38;3.90;;;2.20;;
47429;SDS011;33181;49.246;7.372;2023-08-01T14:08:34;5.70;;;2.40;;
47429;SDS011;33181;49.246;7.372;2023-08-01T14:11:04;3.93;;;2.40;;
47429;SDS011;33181;49.246;7.372;2023-08-01T14:13:31;4.37;;;2.60;;
47429;SDS011;33181;49.246;7.372;2023-08-01T14:15:57;6.10;;;2.37;;
47429;SDS011;33181;49.246;7.372;2023-08-01T14:18:25;5.07;;;2.70;;
47429;SDS011;33181;49.246;7.372;2023-08-01T14:20:51;7.00;;;2.70;;
47429;SDS011;33181;49.246;7.372;2023-08-01T14:23:18;6.50;;;2.40;;
47429;SDS011;33181;49.246;7.372;2023-08-01T14:25:45;4.43;;;2.60;;
47429;SDS011;33181;49.246;7.372;2023-08-01T14:28:10;4.53;;;2.50;;
47429;SDS011;33181;49.246;7.372;2023-08-01T14:30:36;3.90;;;2.57;;
47429;SDS011;33181;49.246;7.372;2023-08-01T14:33:03;3.40;;;2.40;;
47429;SDS011;33181;49.246;7.372;2023-08-01T14:35:34;5.23;;;2.80;;
47429;SDS011;33181;49.246;7.372;2023-08-01T14:38:01;4.10;;;2.60;;
47429;SDS011;33181;49.246;7.372;2023-08-01T14:40:28;3.70;;;2.60;;
47429;SDS011;33181;49.246;7.372;2023-08-01T14:42:55;4.40;;;2.60;;
47429;SDS011;33181;49.246;7.372;2023-08-01T14:45:21;6.10;;;2.60;;
47429;SDS011;33181;49.246;7.372;2023-08-01T14:47:47;4.00;;;2.60;;
47429;SDS011;33181;49.246;7.372;2023-08-01T14:50:15;5.67;;;2.80;;
47429;SDS011;33181;49.246;7.372;2023-08-01T14:52:43;7.03;;;2.70;;
47429;SDS011;33181;49.246;7.372;2023-08-01T14:55:09;3.73;;;2.47;;